2022年5月19日 11:002022年5月19日 20:00有效
时间
星期四
11:00
星期四
12:00
星期四
13:00
星期四
14:00
星期四
15:00
星期四
16:00
星期四
17:00
星期四
18:00
星期四
19:00
>40%
代码
MVFR
MVFR
MVFR
MVFR
MVFR
MVFR
MVFR
MVFR
LIFR
天气
碎云
碎云
碎云
碎云
碎云
碎云
碎云
碎云
碎云
能见度
10 km+
10 km+
10 km+
10 km+
10 km+
10 km+
10 km+
10 km+
10 km+
天花板
2.500 ft
2.500 ft
2.500 ft
2.500 ft
2.500 ft
2.500 ft
2.500 ft
2.500 ft
2.500 ft
260°
260°
090°
090°
090°
090°
090°
090°
090°
090°
090°
090°
090°
090°
090°
090°
090°
090°
速度
5 kt
10 kt
10 kt
10 kt
10 kt
10 kt
10 kt
10 kt
10 kt
阵风
温度/星期日

原版的

TAF LFBY 190800Z 1909/1918 26005KT 9999 SCT014 BKN025
BECMG 1910/1912 09010KT
TEMPO 1917/1918 SCT080CB

TAF Dax Seyresse Airport

Dax Seyresse Airport是Dax,法国中的小机场。 该机场有一条跑道: 7/25.

这份报告是针对2022年5月19日 10:00, 当地时间在Dax Seyresse Airport进行的。 从2022年5月19日 11:00到2022年5月19日 20:00, 当地时间有效.

预报

  • 从星期四 11:00到20:00

    • 风: 风来自260°方向,速度为5 kt。
    • 能见度: 10 km 或者更多
    • 乌云: 疏云,零星散落的云朵在1.400 ft的高度 和 碎云在2.500 ft的高度.

  • 介于星期四 12:00和14:00之间

    • 风: 风来自090°方向,速度为10 kt。

  • 暂时在星期四 19:00和20:00之间

    • 乌云: 疏云,零星散落的云朵 积雨云在8.000 ft的高度.

白天

今天,太阳从06:34升起,在21:26降落。 这适用于Dax Seyresse Airport,世界夏令时可能有所不同。 当地时间与世界标准时间之间的时差为+2 小时。 夏令时目前正在进行中。

下载我们的应用程序

在您的手机和平板电脑上轻松访问所有航空天气。
有许多网站上没有的功能,如离线支持和个人机场列表。

Studio Eveline

Benalmádena
España

我们和第三方通过cookies跟踪您在我们网站上的上网行为。如果您继续,我们认为您同意我们的cookie政策。 了解更多